Time;durP1;ratioP1;P1;durP2;ratioP2;P2;SDS_P1;SDS_P2;PMS_P1;PMS_P2;Temp;Humidity;BMP_temperature;BMP_pressure;BME280_temperature;BME280_humidity;BME280_pressure;Samples;Min_cycle;Max_cycle;Signal;HPM_P1;HPM_P2
2022/05/10 00:00:36;;;;;;;7.45;3.53;;;;;;;10.03;52.73;101057.88;30857479;28;96691;-69
2022/05/10 00:15:38;;;;;;;6.30;3.37;;;;;;;9.77;53.59;101055.88;30856453;28;97233;-70
2022/05/10 00:30:39;;;;;;;5.77;3.70;;;;;;;9.56;54.55;101042.75;30854626;28;96770;-69
2022/05/10 00:45:50;;;;;;;6.28;3.33;;;;;;;9.37;55.13;101032.97;30854958;28;97155;-68
2022/05/10 01:00:54;;;;;;;7.80;3.17;;;;;;;9.14;55.59;101021.78;30853570;28;96817;-70
2022/05/10 01:16:05;;;;;;;9.83;3.57;;;;;;;9.03;56.47;101004.16;30852130;28;96822;-68
2022/05/10 01:31:12;;;;;;;6.37;3.47;;;;;;;8.75;57.49;100993.41;30851365;28;96686;-70
2022/05/10 01:46:19;;;;;;;9.57;3.77;;;;;;;8.56;58.09;100985.41;30864999;28;96755;-69
2022/05/10 02:01:25;;;;;;;9.87;3.90;;;;;;;8.45;59.50;100979.22;30869406;28;99135;-68
2022/05/10 02:16:33;;;;;;;11.50;5.17;;;;;;;8.28;60.05;100977.19;30867299;28;98502;-69
2022/05/10 02:47:06;;;;;;;9.05;3.95;;;;;;;7.92;62.29;100952.94;30865494;28;96742;-68
2022/05/10 03:02:16;;;;;;;11.60;4.57;;;;;;;7.83;62.81;100945.78;30861699;28;97898;-68
2022/05/10 03:17:17;;;;;;;13.67;4.47;;;;;;;7.68;63.53;100946.16;30860294;28;96981;-68
2022/05/10 03:32:17;;;;;;;13.45;4.63;;;;;;;7.67;63.42;100944.47;30858368;28;97388;-68
2022/05/10 03:47:26;;;;;;;13.70;4.60;;;;;;;7.79;63.34;100945.19;30857031;28;104325;-68
2022/05/10 04:02:26;;;;;;;13.07;4.55;;;;;;;7.98;63.08;100955.03;30855156;28;96627;-68
2022/05/10 04:17:27;;;;;;;13.05;5.10;;;;;;;8.27;62.85;100935.72;30852268;28;97456;-67
2022/05/10 04:32:27;;;;;;;19.17;6.30;;;;;;;8.56;62.51;100932.28;30850478;28;96964;-74
2022/05/10 04:47:27;;;;;;;10.10;4.95;;;;;;;8.94;62.13;100938.59;30850627;28;97553;-68
2022/05/10 05:02:28;;;;;;;11.30;4.82;;;;;;;9.45;61.25;100948.00;30849133;28;114863;-68
2022/05/10 05:17:28;;;;;;;15.35;5.60;;;;;;;10.07;59.94;100944.78;30858776;28;96624;-68
2022/05/10 05:32:34;;;;;;;14.07;5.30;;;;;;;10.89;58.58;100946.66;30872712;28;113552;-69
2022/05/10 05:47:35;;;;;;;11.53;4.93;;;;;;;11.81;56.63;100939.06;30866465;28;97577;-68
2022/05/10 06:02:36;;;;;;;11.35;5.25;;;;;;;12.72;53.74;100942.84;30865061;28;96716;-70
2022/05/10 06:17:39;;;;;;;12.27;4.83;;;;;;;13.59;52.11;100928.91;30865127;28;97071;-72
2022/05/10 06:32:40;;;;;;;14.37;5.40;;;;;;;14.27;50.17;100912.38;30862504;28;97043;-69
2022/05/10 06:47:42;;;;;;;12.32;5.57;;;;;;;15.18;48.33;100902.63;30861932;28;96757;-73
2022/05/10 07:02:44;;;;;;;10.90;5.70;;;;;;;15.67;45.39;100895.88;30860757;28;96835;-72
2022/05/10 07:17:45;;;;;;;8.77;4.97;;;;;;;16.42;44.43;100883.13;30856743;28;96707;-73
2022/05/10 07:32:45;;;;;;;8.47;5.23;;;;;;;17.36;42.60;100877.66;30854446;28;96819;-69
2022/05/10 07:47:46;;;;;;;11.27;5.50;;;;;;;18.66;40.90;100871.44;30849480;28;96728;-69
2022/05/10 08:02:46;;;;;;;8.07;5.55;;;;;;;19.67;39.22;100864.03;30851188;28;96894;-74
2022/05/10 08:17:47;;;;;;;10.45;5.10;;;;;;;20.63;37.03;100852.22;30859657;28;101237;-70
2022/05/10 08:32:48;;;;;;;8.33;5.07;;;;;;;21.11;35.77;100855.38;30850267;28;97449;-72
2022/05/10 08:47:48;;;;;;;9.30;4.00;;;;;;;21.92;34.25;100842.53;30854733;28;96852;-71
2022/05/10 09:02:53;;;;;;;5.30;3.17;;;;;;;21.73;32.44;100827.38;30827694;28;97585;-72
2022/05/10 09:17:54;;;;;;;9.50;3.30;;;;;;;22.64;30.26;100825.41;30738344;28;96845;-72
2022/05/10 09:48:40;;;;;;;8.03;3.33;;;;;;;22.58;29.25;100788.34;30738012;28;96729;-74
2022/05/10 10:03:43;;;;;;;10.80;3.70;;;;;;;23.48;28.35;100760.91;30736221;28;97978;-72
2022/05/10 10:18:52;;;;;;;6.80;3.20;;;;;;;23.75;28.53;100746.72;30732959;28;96717;-72
2022/05/10 10:34:13;;;;;;;6.43;2.40;;;;;;;24.18;27.68;100739.88;30729765;28;96887;-72
2022/05/10 10:49:21;;;;;;;5.70;2.80;;;;;;;24.10;27.99;100722.06;30729963;28;96745;-72
2022/05/10 11:04:58;;;;;;;6.60;3.00;;;;;;;25.52;26.17;100698.06;30729118;28;97195;-74
2022/05/10 11:20:13;;;;;;;7.53;3.27;;;;;;;25.66;26.86;100677.44;30726029;28;97359;-74
2022/05/10 11:35:32;;;;;;;10.03;3.10;;;;;;;25.78;26.60;100655.44;30732025;28;97761;-73
2022/05/10 12:06:22;;;;;;;8.07;2.80;;;;;;;26.56;25.16;100614.97;30853122;28;96738;-74
2022/05/10 12:21:25;;;;;;;6.37;3.00;;;;;;;25.83;26.23;100592.72;30852290;28;96766;-72
2022/05/10 12:36:32;;;;;;;6.97;3.27;;;;;;;26.34;25.96;100566.81;30850536;28;97600;-75
2022/05/10 12:52:18;;;;;;;7.30;3.03;;;;;;;25.99;26.08;100549.97;30850209;28;97448;-72
2022/05/10 13:07:48;;;;;;;6.13;2.80;;;;;;;25.23;27.03;100525.69;30764513;28;98651;-70
2022/05/10 13:22:54;;;;;;;;;;;;;;;27.00;26.31;100486.94;30773882;28;97652;-76
2022/05/10 13:37:59;;;;;;;9.40;4.80;;;;;;;27.62;24.22;100462.25;30854649;28;97339;-71
2022/05/10 13:53:03;;;;;;;4.60;2.40;;;;;;;26.95;25.10;100453.31;30867677;28;96727;-76
2022/05/10 14:08:12;;;;;;;5.57;2.63;;;;;;;26.39;25.93;100437.66;30863394;28;96810;-72
2022/05/10 14:23:16;;;;;;;5.83;2.50;;;;;;;25.82;26.92;100404.69;30863419;28;97423;-81
2022/05/10 14:38:24;;;;;;;4.63;2.37;;;;;;;25.18;27.73;100398.34;30861657;28;96620;-73
2022/05/10 14:53:30;;;;;;;4.43;2.20;;;;;;;24.82;28.71;100392.63;30862285;28;96753;-70
2022/05/10 15:08:30;;;;;;;6.40;2.90;;;;;;;25.37;28.22;100355.16;30897691;28;97695;-71
2022/05/10 15:23:30;;;;;;;4.35;2.72;;;;;;;24.65;29.40;100339.13;30920041;28;97372;-71
2022/05/10 15:38:31;;;;;;;9.63;2.78;;;;;;;24.22;30.15;100315.56;30915415;28;104273;-71
2022/05/10 15:53:35;;;;;;;7.43;2.80;;;;;;;23.84;30.65;100326.34;30911341;28;97041;-73
2022/05/10 16:08:36;;;;;;;6.83;2.97;;;;;;;23.62;31.09;100313.59;30914050;28;97083;-71
2022/05/10 16:23:39;;;;;;;9.47;3.20;;;;;;;23.26;31.71;100298.72;30901382;28;97267;-71
2022/05/10 16:38:39;;;;;;;10.80;3.37;;;;;;;22.83;32.62;100273.94;30845377;28;96958;-72
2022/05/10 16:53:39;;;;;;;8.43;2.93;;;;;;;22.47;33.00;100273.38;30849664;28;108297;-72
2022/05/10 17:08:39;;;;;;;8.97;3.03;;;;;;;22.13;35.12;100259.81;30852773;28;115511;-71
2022/05/10 17:23:41;;;;;;;5.33;2.70;;;;;;;21.73;35.90;100260.72;30870187;28;112520;-70
2022/05/10 17:38:42;;;;;;;3.57;2.67;;;;;;;21.29;36.68;100259.28;30864418;28;98767;-74
2022/05/10 17:53:45;;;;;;;5.35;2.50;;;;;;;20.72;38.08;100251.88;30867928;28;96966;-68
2022/05/10 18:08:46;;;;;;;6.77;2.90;;;;;;;20.12;39.35;100250.94;30863828;28;96702;-72
2022/05/10 18:23:47;;;;;;;6.23;3.20;;;;;;;19.52;40.95;100257.19;30859883;28;97615;-71
2022/05/10 18:38:47;;;;;;;5.07;3.55;;;;;;;19.00;42.41;100259.44;30861882;28;97352;-68
2022/05/10 18:53:48;;;;;;;8.60;3.28;;;;;;;18.48;43.53;100257.03;30862305;28;97244;-71
2022/05/10 19:08:48;;;;;;;8.75;4.20;;;;;;;18.04;44.41;100257.78;30860376;28;96754;-72
2022/05/10 19:23:48;;;;;;;7.75;3.88;;;;;;;17.76;44.72;100258.94;30858851;28;96782;-70
2022/05/10 19:38:49;;;;;;;8.27;4.18;;;;;;;17.46;45.57;100264.06;30856115;28;96851;-73
2022/05/10 19:53:50;;;;;;;8.27;3.65;;;;;;;17.24;46.42;100260.84;30857171;28;97248;-70
2022/05/10 20:08:50;;;;;;;8.63;4.20;;;;;;;16.89;47.24;100245.84;30855420;28;96917;-71
2022/05/10 20:23:53;;;;;;;8.68;4.65;;;;;;;16.60;49.02;100248.97;30855094;28;97257;-72
2022/05/10 20:38:53;;;;;;;7.30;5.20;;;;;;;16.29;49.78;100236.97;30853007;28;96699;-72
2022/05/10 20:53:53;;;;;;;7.32;5.72;;;;;;;16.00;51.70;100230.97;30851450;28;96786;-71
2022/05/10 21:08:54;;;;;;;9.77;5.20;;;;;;;15.74;52.74;100230.66;30852233;28;97157;-73
2022/05/10 21:23:54;;;;;;;10.63;6.43;;;;;;;15.49;54.07;100225.03;30853411;28;97916;-72
2022/05/10 21:38:55;;;;;;;9.32;6.00;;;;;;;15.27;54.84;100220.81;30848922;28;97342;-73
2022/05/10 21:53:55;;;;;;;11.50;6.50;;;;;;;14.99;56.12;100205.63;30852167;28;96733;-70
2022/05/10 22:08:55;;;;;;;13.27;6.60;;;;;;;14.78;57.10;100210.06;30868722;28;97034;-71
2022/05/10 22:23:56;;;;;;;12.25;6.72;;;;;;;14.56;58.44;100195.88;30867021;28;96715;-71
2022/05/10 22:38:59;;;;;;;10.40;7.30;;;;;;;14.27;59.04;100176.31;30864953;28;99550;-70
2022/05/10 22:53:59;;;;;;;15.03;7.10;;;;;;;14.02;60.13;100173.22;30891499;28;98718;-71
2022/05/10 23:08:59;;;;;;;12.52;7.63;;;;;;;13.84;60.94;100166.47;30968943;28;111555;-71
2022/05/10 23:24:04;;;;;;;14.15;8.13;;;;;;;13.54;61.89;100153.22;30862033;28;97132;-71
2022/05/10 23:39:04;;;;;;;11.17;7.90;;;;;;;13.39;62.66;100155.13;30859990;28;96693;-71
2022/05/10 23:54:05;;;;;;;13.25;8.57;;;;;;;13.43;62.78;100132.31;30859298;28;108733;-70
